createdAt,value
2022-12-09T00:01:18.907Z,98098.00
2022-12-09T00:03:47.325Z,98104.00
2022-12-09T00:06:26.097Z,98096.00
2022-12-09T00:08:54.703Z,98088.00
2022-12-09T00:11:23.348Z,98092.00
2022-12-09T00:13:53.794Z,98092.00
2022-12-09T00:16:21.968Z,98092.00
2022-12-09T00:18:50.053Z,98092.00
2022-12-09T00:21:28.697Z,98088.00
2022-12-09T00:23:58.712Z,98082.00
2022-12-09T00:26:27.637Z,98089.00
2022-12-09T00:28:56.712Z,98086.00
2022-12-09T00:31:28.249Z,98091.00
2022-12-09T00:34:02.550Z,98085.00
2022-12-09T00:36:31.078Z,98076.00
2022-12-09T00:38:58.684Z,98071.00
2022-12-09T00:41:27.001Z,98078.00
2022-12-09T00:43:54.593Z,98070.00
2022-12-09T00:46:21.660Z,98075.00
2022-12-09T00:48:49.978Z,98068.00
2022-12-09T00:51:21.485Z,98078.00
2022-12-09T00:53:54.668Z,98060.00
2022-12-09T00:56:28.274Z,98057.00
2022-12-09T00:58:56.408Z,98069.00
2022-12-09T01:01:24.409Z,98070.00
2022-12-09T01:03:52.160Z,98060.00
2022-12-09T01:06:23.861Z,98063.00
2022-12-09T01:08:51.572Z,98065.00
2022-12-09T01:11:28.325Z,98074.00
2022-12-09T01:14:01.104Z,98055.00
2022-12-09T01:16:33.884Z,98047.00
2022-12-09T01:19:05.927Z,98038.00
2022-12-09T01:21:34.840Z,98041.00
2022-12-09T01:24:07.496Z,98037.00
2022-12-09T01:26:34.437Z,98044.00
2022-12-09T01:29:01.412Z,98030.00
2022-12-09T01:31:28.732Z,98026.00
2022-12-09T01:33:56.888Z,98037.00
2022-12-09T01:36:28.504Z,98041.00
2022-12-09T01:39:00.812Z,98036.00
2022-12-09T01:41:28.704Z,98042.00
2022-12-09T01:44:26.020Z,98039.00
2022-12-09T01:47:00.180Z,98031.00
2022-12-09T01:49:48.233Z,98030.00
2022-12-09T01:52:23.140Z,98033.00
2022-12-09T01:54:53.216Z,98034.00
2022-12-09T01:57:20.740Z,98021.00
2022-12-09T01:59:48.462Z,98017.00
2022-12-09T02:02:19.037Z,98017.00
2022-12-09T02:04:50.395Z,98006.00
2022-12-09T02:07:19.857Z,98005.00
2022-12-09T02:09:48.299Z,97994.00
2022-12-09T02:12:50.760Z,97994.00
2022-12-09T02:15:24.285Z,97997.00
2022-12-09T02:18:06.203Z,98001.00
2022-12-09T02:20:48.974Z,97994.00
2022-12-09T02:23:28.571Z,97999.00
2022-12-09T02:26:00.900Z,97986.00
2022-12-09T02:28:30.887Z,97971.00
2022-12-09T02:31:40.789Z,97972.00
2022-12-09T02:34:31.131Z,97964.00
2022-12-09T02:37:10.554Z,97967.00
2022-12-09T02:40:02.913Z,97970.00
2022-12-09T02:42:36.668Z,97973.00
2022-12-09T02:45:08.378Z,97976.00
2022-12-09T02:47:43.211Z,97978.00
2022-12-09T02:50:15.464Z,97971.00
2022-12-09T02:52:44.941Z,97965.00
2022-12-09T02:55:17.164Z,97964.00
2022-12-09T02:57:44.242Z,97960.00
2022-12-09T03:00:15.647Z,97956.00
2022-12-09T03:02:55.642Z,97954.00
2022-12-09T03:06:09.518Z,97954.00
2022-12-09T03:08:59.013Z,97952.00
2022-12-09T03:11:27.879Z,97943.00
2022-12-09T03:14:38.387Z,97937.00
2022-12-09T03:17:45.351Z,97930.00
2022-12-09T03:20:23.861Z,97927.00
2022-12-09T03:22:56.518Z,97915.00
2022-12-09T03:25:40.563Z,97909.00
2022-12-09T03:28:19.975Z,97912.00
2022-12-09T03:30:47.746Z,97909.00
2022-12-09T03:33:18.805Z,97905.00
2022-12-09T03:35:56.539Z,97905.00
2022-12-09T03:38:28.378Z,97893.00
2022-12-09T03:41:31.629Z,97895.00
2022-12-09T03:44:23.339Z,97900.00
2022-12-09T03:46:50.624Z,97894.00
2022-12-09T03:49:18.480Z,97901.00
2022-12-09T03:52:21.179Z,97896.00
2022-12-09T03:54:58.285Z,97904.00
2022-12-09T03:57:27.260Z,97893.00
2022-12-09T04:00:01.904Z,97883.00
2022-12-09T04:02:29.683Z,97891.00
2022-12-09T04:04:57.647Z,97886.00
2022-12-09T04:07:24.951Z,97874.00
2022-12-09T04:09:52.092Z,97881.00
2022-12-09T04:12:19.518Z,97869.00
2022-12-09T04:14:46.663Z,97875.00
2022-12-09T04:17:14.138Z,97860.00
2022-12-09T04:19:41.921Z,97859.00
2022-12-09T04:22:09.130Z,97851.00
2022-12-09T04:24:36.266Z,97855.00
2022-12-09T04:27:03.666Z,97850.00
2022-12-09T04:29:30.791Z,97851.00
2022-12-09T04:31:58.053Z,97844.00
2022-12-09T04:34:25.292Z,97844.00
2022-12-09T04:36:52.333Z,97846.00
2022-12-09T04:39:19.777Z,97834.00
2022-12-09T04:41:46.717Z,97845.00
2022-12-09T04:44:14.153Z,97832.00
2022-12-09T04:46:41.538Z,97841.00
2022-12-09T04:49:09.104Z,97831.00
2022-12-09T04:51:40.029Z,97823.00
2022-12-09T04:54:13.217Z,97825.00
2022-12-09T04:56:41.751Z,97821.00
2022-12-09T04:59:09.403Z,97823.00
2022-12-09T05:01:36.723Z,97822.00
2022-12-09T05:04:04.376Z,97820.00
2022-12-09T05:06:32.021Z,97816.00
2022-12-09T05:08:59.687Z,97822.00
2022-12-09T05:11:27.549Z,97826.00
2022-12-09T05:13:55.266Z,97813.00
2022-12-09T05:16:22.725Z,97809.00
2022-12-09T05:18:50.825Z,97820.00
2022-12-09T05:21:20.929Z,97820.00
2022-12-09T05:23:49.489Z,97823.00
2022-12-09T05:26:20.538Z,97820.00
2022-12-09T05:28:48.772Z,97810.00
2022-12-09T05:31:20.018Z,97827.00
2022-12-09T05:33:48.747Z,97815.00
2022-12-09T05:36:21.121Z,97817.00
2022-12-09T05:38:50.246Z,97826.00
2022-12-09T05:41:19.079Z,97815.00
2022-12-09T05:43:47.069Z,97807.00
2022-12-09T05:46:15.794Z,97809.00
2022-12-09T05:48:44.168Z,97803.00
2022-12-09T05:51:18.656Z,97806.00
2022-12-09T05:53:45.849Z,97815.00
2022-12-09T05:56:22.226Z,97803.00
2022-12-09T05:58:50.971Z,97807.00
2022-12-09T06:01:18.655Z,97808.00
2022-12-09T06:03:50.948Z,97806.00
2022-12-09T06:06:21.823Z,97801.00
2022-12-09T06:08:49.578Z,97797.00
2022-12-09T06:11:21.552Z,97797.00
2022-12-09T06:13:50.645Z,97795.00
2022-12-09T06:16:20.896Z,97800.00
2022-12-09T06:18:49.690Z,97804.00
2022-12-09T06:21:20.934Z,97806.00
2022-12-09T06:23:49.750Z,97806.00
2022-12-09T06:26:24.589Z,97806.00
2022-12-09T06:28:53.564Z,97804.00
2022-12-09T06:31:22.201Z,97808.00
2022-12-09T06:33:55.434Z,97804.00
2022-12-09T06:36:25.079Z,97806.00
2022-12-09T06:38:52.687Z,97806.00
2022-12-09T06:41:19.960Z,97805.00
2022-12-09T06:43:47.492Z,97810.00
2022-12-09T06:46:23.762Z,97802.00
2022-12-09T06:48:52.984Z,97797.00
2022-12-09T06:51:21.498Z,97796.00
2022-12-09T06:53:49.456Z,97793.00
2022-12-09T06:56:17.855Z,97796.00
2022-12-09T06:58:47.329Z,97798.00
2022-12-09T07:01:20.054Z,97789.00
2022-12-09T07:03:51.357Z,97780.00
2022-12-09T07:06:39.316Z,97792.00
2022-12-09T07:09:14.740Z,97797.00
2022-12-09T07:11:43.178Z,97801.00
2022-12-09T07:14:10.890Z,97794.00
2022-12-09T07:16:40.733Z,97782.00
2022-12-09T07:19:20.482Z,97765.00
2022-12-09T07:21:56.647Z,97775.00
2022-12-09T07:24:29.757Z,97791.00
2022-12-09T07:27:08.690Z,97790.00
2022-12-09T07:29:43.321Z,97779.00
2022-12-09T07:32:16.312Z,97791.00
2022-12-09T07:34:47.157Z,97785.00
2022-12-09T07:37:16.950Z,97794.00
2022-12-09T07:39:51.424Z,97780.00
2022-12-09T07:42:18.725Z,97790.00
2022-12-09T07:44:49.047Z,97787.00
2022-12-09T07:47:24.798Z,97791.00
2022-12-09T07:49:54.632Z,97791.00
2022-12-09T07:52:27.725Z,97787.00
2022-12-09T07:54:58.823Z,97788.00
2022-12-09T07:57:33.539Z,97795.00
2022-12-09T08:00:03.527Z,97792.00
2022-12-09T08:02:33.640Z,97774.00
2022-12-09T08:05:02.639Z,97781.00
2022-12-09T08:07:36.382Z,97770.00
2022-12-09T08:10:11.400Z,97758.00
2022-12-09T08:12:41.283Z,97776.00
2022-12-09T08:15:15.337Z,97781.00
2022-12-09T08:17:46.405Z,97778.00
2022-12-09T08:20:28.868Z,97774.00
2022-12-09T08:23:33.559Z,97784.00
2022-12-09T08:26:09.561Z,97770.00
2022-12-09T08:28:46.342Z,97780.00
2022-12-09T08:31:23.223Z,97779.00
2022-12-09T08:43:12.739Z,97773.00
2022-12-09T08:49:50.215Z,97781.00
2022-12-09T08:52:23.333Z,97781.00
2022-12-09T08:54:57.420Z,97768.00
2022-12-09T08:57:30.871Z,97781.00
2022-12-09T09:00:15.163Z,97765.00
2022-12-09T09:02:50.017Z,97769.00
2022-12-09T09:05:19.959Z,97765.00
2022-12-09T09:07:50.409Z,97758.00
2022-12-09T09:10:28.659Z,97754.00
2022-12-09T09:13:01.639Z,97752.00
2022-12-09T09:15:52.603Z,97753.00
2022-12-09T09:18:32.784Z,97752.00
2022-12-09T09:21:04.267Z,97744.00
2022-12-09T09:23:36.914Z,97747.00
2022-12-09T09:26:24.726Z,97752.00
2022-12-09T09:29:03.508Z,97762.00
2022-12-09T09:31:33.468Z,97762.00
2022-12-09T09:34:09.422Z,97760.00
2022-12-09T09:36:42.239Z,97762.00
2022-12-09T09:39:15.305Z,97771.00
2022-12-09T09:42:08.328Z,97772.00
2022-12-09T09:45:01.600Z,97787.00
2022-12-09T09:47:50.303Z,97784.00
2022-12-09T09:51:07.248Z,97766.00
2022-12-09T09:53:49.859Z,97769.00
2022-12-09T09:57:08.581Z,97789.00
2022-12-09T10:00:10.178Z,97775.00
2022-12-09T10:03:43.737Z,97777.00
2022-12-09T10:06:53.281Z,97766.00
2022-12-09T10:09:54.728Z,97755.00
2022-12-09T10:17:37.508Z,97759.00
2022-12-09T10:44:45.812Z,97711.00
2022-12-09T11:10:33.372Z,97703.00
2022-12-09T11:13:09.014Z,97708.00
2022-12-09T11:15:54.464Z,97709.00
2022-12-09T11:18:33.038Z,97708.00
2022-12-09T11:21:04.762Z,97701.00
2022-12-09T11:23:38.530Z,97687.00
2022-12-09T11:26:23.842Z,97698.00
2022-12-09T11:29:13.402Z,97700.00
2022-12-09T11:31:42.795Z,97694.00
2022-12-09T11:34:26.207Z,97697.00
2022-12-09T11:36:58.954Z,97682.00
2022-12-09T11:39:38.004Z,97678.00
2022-12-09T11:42:26.944Z,97673.00
2022-12-09T11:45:17.949Z,97683.00
2022-12-09T11:50:43.872Z,97674.00
2022-12-09T11:53:13.745Z,97675.00
2022-12-09T11:56:12.174Z,97688.00
2022-12-09T11:58:59.927Z,97679.00
2022-12-09T12:02:06.163Z,97674.00
2022-12-09T12:04:52.544Z,97673.00
2022-12-09T12:20:34.939Z,97680.00
2022-12-09T12:32:14.952Z,97681.00
2022-12-09T12:34:59.704Z,97680.00
2022-12-09T12:38:18.656Z,97670.00
2022-12-09T12:41:52.272Z,97673.00
2022-12-09T12:44:54.650Z,97673.00
2022-12-09T12:47:33.153Z,97673.00
2022-12-09T12:50:25.860Z,97671.00
2022-12-09T12:53:31.716Z,97668.00
2022-12-09T12:56:14.542Z,97667.00
2022-12-09T12:59:15.741Z,97666.00
2022-12-09T13:01:54.393Z,97666.00
2022-12-09T13:04:31.768Z,97673.00
2022-12-09T13:07:38.415Z,97677.00
2022-12-09T13:10:55.498Z,97677.00
2022-12-09T13:13:38.570Z,97674.00
2022-12-09T13:16:28.032Z,97673.00
2022-12-09T13:19:11.693Z,97664.00
2022-12-09T13:21:39.254Z,97668.00
2022-12-09T13:24:27.994Z,97670.00
2022-12-09T13:27:26.827Z,97671.00
2022-12-09T13:30:09.840Z,97655.00
2022-12-09T13:33:33.266Z,97662.00
2022-12-09T13:36:52.132Z,97671.00
2022-12-09T13:39:49.653Z,97678.00
2022-12-09T13:42:46.243Z,97679.00
2022-12-09T13:45:31.729Z,97692.00
2022-12-09T13:48:16.628Z,97689.00
2022-12-09T13:51:03.636Z,97688.00
2022-12-09T13:54:01.279Z,97687.00
2022-12-09T13:56:37.029Z,97689.00
2022-12-09T13:59:25.072Z,97690.00
2022-12-09T14:02:19.740Z,97705.00
2022-12-09T14:05:15.652Z,97691.00
2022-12-09T14:08:20.310Z,97691.00
2022-12-09T14:10:50.253Z,97683.00
2022-12-09T14:13:36.245Z,97683.00
2022-12-09T14:16:27.782Z,97700.00
2022-12-09T14:18:58.306Z,97703.00
2022-12-09T14:21:38.890Z,97699.00
2022-12-09T14:24:11.486Z,97692.00
2022-12-09T14:27:16.949Z,97701.00
2022-12-09T14:29:45.222Z,97704.00
2022-12-09T14:32:53.868Z,97704.00
2022-12-09T14:35:43.866Z,97714.00
2022-12-09T14:38:22.736Z,97714.00
2022-12-09T14:41:04.366Z,97719.00
2022-12-09T14:44:15.870Z,97723.00
2022-12-09T14:46:46.107Z,97717.00
2022-12-09T14:49:29.234Z,97717.00
2022-12-09T14:52:04.347Z,97727.00
2022-12-09T14:54:46.068Z,97731.00
2022-12-09T14:57:44.085Z,97740.00
2022-12-09T15:00:32.685Z,97746.00
2022-12-09T15:07:36.853Z,97743.00
2022-12-09T15:10:27.091Z,97749.00
2022-12-09T15:12:57.691Z,97735.00
2022-12-09T15:15:34.453Z,97735.00
2022-12-09T15:18:31.767Z,97737.00
2022-12-09T15:21:01.757Z,97729.00
2022-12-09T15:23:35.169Z,97748.00
2022-12-09T15:26:06.456Z,97746.00
2022-12-09T15:28:36.626Z,97741.00
2022-12-09T15:31:20.952Z,97747.00
2022-12-09T15:33:58.560Z,97740.00
2022-12-09T15:36:33.177Z,97746.00
2022-12-09T15:39:28.792Z,97743.00
2022-12-09T15:42:12.062Z,97732.00
2022-12-09T15:44:58.041Z,97739.00
2022-12-09T15:48:15.826Z,97745.00
2022-12-09T15:51:06.718Z,97746.00
2022-12-09T15:53:43.037Z,97758.00
2022-12-09T15:56:35.381Z,97757.00
2022-12-09T15:59:31.938Z,97747.00
2022-12-09T16:02:01.364Z,97750.00
2022-12-09T16:04:44.683Z,97742.00
2022-12-09T16:07:14.221Z,97754.00
2022-12-09T16:09:41.503Z,97768.00
2022-12-09T16:12:27.012Z,97757.00
2022-12-09T16:14:54.436Z,97753.00
2022-12-09T16:17:31.018Z,97752.00
2022-12-09T16:19:59.085Z,97762.00
2022-12-09T16:22:30.937Z,97769.00
2022-12-09T16:38:22.938Z,97769.00
2022-12-09T16:40:52.726Z,97775.00
2022-12-09T16:44:04.292Z,97781.00
2022-12-09T16:47:16.421Z,97766.00
2022-12-09T16:54:40.645Z,97766.00
2022-12-09T16:57:44.369Z,97776.00
2022-12-09T17:00:18.024Z,97771.00
2022-12-09T17:06:53.874Z,97783.00
2022-12-09T17:13:41.246Z,97783.00
2022-12-09T17:21:20.852Z,97787.00
2022-12-09T17:24:27.942Z,97792.00
2022-12-09T17:39:02.900Z,97791.00
2022-12-09T17:49:52.226Z,97806.00
2022-12-09T17:52:19.041Z,97804.00
2022-12-09T17:54:47.604Z,97811.00
2022-12-09T17:57:14.678Z,97808.00
2022-12-09T17:59:41.448Z,97805.00
2022-12-09T18:02:11.315Z,97800.00
2022-12-09T18:04:38.189Z,97801.00
2022-12-09T18:07:12.285Z,97810.00
2022-12-09T18:09:41.776Z,97820.00
2022-12-09T18:12:08.746Z,97827.00
2022-12-09T18:14:35.540Z,97820.00
2022-12-09T18:17:05.197Z,97823.00
2022-12-09T18:19:35.135Z,97828.00
2022-12-09T18:22:02.968Z,97829.00
2022-12-09T18:24:29.994Z,97833.00
2022-12-09T18:26:58.279Z,97837.00
2022-12-09T18:29:26.142Z,97832.00
2022-12-09T18:31:56.804Z,97836.00
2022-12-09T18:34:26.314Z,97833.00
2022-12-09T18:36:53.858Z,97839.00
2022-12-09T18:39:21.188Z,97830.00
2022-12-09T18:41:48.016Z,97839.00
2022-12-09T18:44:16.217Z,97832.00
2022-12-09T18:46:50.231Z,97834.00
2022-12-09T18:49:30.054Z,97816.00
2022-12-09T18:51:56.943Z,97825.00
2022-12-09T18:54:27.610Z,97826.00
2022-12-09T18:56:55.834Z,97828.00
2022-12-09T18:59:25.465Z,97831.00
2022-12-09T19:01:53.663Z,97828.00
2022-12-09T19:04:24.891Z,97828.00
2022-12-09T19:06:55.327Z,97834.00
2022-12-09T19:09:34.726Z,97838.00
2022-12-09T19:12:30.019Z,97843.00
2022-12-09T19:14:51.136Z,97838.00
2022-12-09T19:17:18.907Z,97829.00
2022-12-09T19:19:47.275Z,97838.00
2022-12-09T19:22:14.601Z,97836.00
2022-12-09T19:24:44.340Z,97839.00
2022-12-09T19:27:11.121Z,97839.00
2022-12-09T19:29:39.413Z,97845.00
2022-12-09T19:32:23.621Z,97844.00
2022-12-09T19:35:05.299Z,97850.00
2022-12-09T19:37:32.157Z,97855.00
2022-12-09T19:40:01.436Z,97850.00
2022-12-09T19:51:06.686Z,97862.00
2022-12-09T19:54:17.687Z,97860.00
2022-12-09T20:01:17.685Z,97864.00
2022-12-09T20:04:48.272Z,97865.00
2022-12-09T20:07:37.137Z,97861.00
2022-12-09T20:11:24.138Z,97859.00
2022-12-09T20:14:40.969Z,97862.00
2022-12-09T20:18:32.863Z,97873.00
2022-12-09T20:21:10.931Z,97868.00
2022-12-09T20:23:39.915Z,97867.00
2022-12-09T20:26:34.779Z,97877.00
2022-12-09T20:29:06.239Z,97864.00
2022-12-09T20:31:36.538Z,97869.00
2022-12-09T20:34:14.969Z,97877.00
2022-12-09T20:36:44.947Z,97869.00
2022-12-09T20:39:19.392Z,97872.00
2022-12-09T20:41:47.811Z,97875.00
2022-12-09T20:44:17.361Z,97873.00
2022-12-09T20:46:55.735Z,97871.00
2022-12-09T20:49:26.645Z,97881.00
2022-12-09T20:51:54.524Z,97870.00
2022-12-09T20:54:21.807Z,97874.00
2022-12-09T20:56:48.973Z,97875.00
2022-12-09T20:59:16.048Z,97874.00
2022-12-09T21:01:43.733Z,97871.00
2022-12-09T21:04:10.617Z,97872.00
2022-12-09T21:06:40.927Z,97870.00
2022-12-09T21:09:17.470Z,97881.00
2022-12-09T21:11:45.256Z,97878.00
2022-12-09T21:14:14.435Z,97879.00
2022-12-09T21:16:42.919Z,97869.00
2022-12-09T21:19:14.547Z,97884.00
2022-12-09T21:21:46.965Z,97891.00
2022-12-09T21:24:15.840Z,97884.00
2022-12-09T21:26:43.204Z,97886.00
2022-12-09T21:29:11.591Z,97886.00
2022-12-09T21:31:40.986Z,97881.00
2022-12-09T21:34:09.910Z,97876.00
2022-12-09T21:36:43.156Z,97884.00
2022-12-09T21:39:13.849Z,97896.00
2022-12-09T21:41:42.161Z,97884.00
2022-12-09T21:44:14.634Z,97891.00
2022-12-09T21:46:42.308Z,97894.00
2022-12-09T21:49:09.447Z,97899.00
2022-12-09T21:51:36.340Z,97890.00
2022-12-09T21:54:04.109Z,97890.00
2022-12-09T21:56:34.978Z,97916.00
2022-12-09T21:59:03.698Z,97904.00
2022-12-09T22:01:38.725Z,97906.00
2022-12-09T22:04:12.264Z,97906.00
2022-12-09T22:06:39.941Z,97901.00
2022-12-09T22:09:08.853Z,97907.00
2022-12-09T22:11:37.857Z,97902.00
2022-12-09T22:14:07.318Z,97901.00
2022-12-09T22:16:41.403Z,97902.00
2022-12-09T22:19:13.058Z,97897.00
2022-12-09T22:21:40.766Z,97899.00
2022-12-09T22:24:10.050Z,97909.00
2022-12-09T22:26:37.018Z,97914.00
2022-12-09T22:29:06.101Z,97920.00
2022-12-09T22:31:36.738Z,97910.00
2022-12-09T22:34:14.587Z,97908.00
2022-12-09T22:36:42.127Z,97903.00
2022-12-09T22:39:16.658Z,97913.00
2022-12-09T22:41:45.718Z,97913.00
2022-12-09T22:44:17.395Z,97911.00
2022-12-09T22:46:45.105Z,97902.00
2022-12-09T22:49:15.154Z,97910.00
2022-12-09T22:51:42.839Z,97908.00
2022-12-09T22:54:10.626Z,97912.00
2022-12-09T22:56:40.354Z,97906.00
2022-12-09T22:59:07.459Z,97902.00
2022-12-09T23:01:37.366Z,97907.00
2022-12-09T23:04:07.007Z,97904.00
2022-12-09T23:06:38.251Z,97907.00
2022-12-09T23:09:15.869Z,97907.00
2022-12-09T23:11:42.809Z,97904.00
2022-12-09T23:14:09.968Z,97908.00
2022-12-09T23:16:36.982Z,97907.00
2022-12-09T23:19:03.826Z,97909.00
2022-12-09T23:21:37.297Z,97906.00
2022-12-09T23:24:10.071Z,97910.00
2022-12-09T23:26:39.496Z,97905.00
2022-12-09T23:29:12.332Z,97912.00
2022-12-09T23:31:39.588Z,97913.00
2022-12-09T23:34:08.781Z,97913.00
2022-12-09T23:36:39.126Z,97917.00
2022-12-09T23:39:15.355Z,97914.00
2022-12-09T23:41:44.677Z,97913.00
2022-12-09T23:44:15.030Z,97908.00
2022-12-09T23:46:42.612Z,97903.00
2022-12-09T23:49:09.825Z,97910.00
2022-12-09T23:51:43.343Z,97913.00
2022-12-09T23:54:14.363Z,97903.00
2022-12-09T23:56:49.742Z,97909.00
2022-12-09T23:59:21.243Z,97905.00
